Time;durP1;ratioP1;P1;durP2;ratioP2;P2;SDS_P1;SDS_P2;PMS_P1;PMS_P2;Temp;Humidity;BMP_temperature;BMP_pressure;BME280_temperature;BME280_humidity;BME280_pressure;Samples;Min_cycle;Max_cycle;Signal;HPM_P1;HPM_P2
2022/06/28 00:00:11;;;;;;;;;;;23.80;62.90;;;;;;5021758;28;87066;-46
2022/06/28 00:02:36;;;;;;;;;;;23.80;63.00;;;;;;5024096;28;90075;-45
2022/06/28 00:05:03;;;;;;;;;;;23.80;63.00;;;;;;5021076;28;87906;-45
2022/06/28 00:07:28;;;;;;;;;;;23.70;62.90;;;;;;5021034;28;89606;-46
2022/06/28 00:09:54;;;;;;;;;;;23.70;62.80;;;;;;5021699;28;87267;-46
2022/06/28 00:12:19;;;;;;;;;;;23.70;63.00;;;;;;5021767;28;88025;-47
2022/06/28 00:17:29;;;;;;;;;;;23.70;63.00;;;;;;5025137;28;87022;-46
2022/06/28 00:19:54;;;;;;;;;;;23.70;62.90;;;;;;5024774;28;87460;-46
2022/06/28 00:22:20;;;;;;;;;;;23.70;62.90;;;;;;5025266;28;87361;-46
2022/06/28 00:24:45;;;;;;;;;;;23.70;62.90;;;;;;5028027;28;87029;-46
2022/06/28 00:27:11;;;;;;;;;;;23.60;62.90;;;;;;5024773;28;88292;-47
2022/06/28 00:29:36;;;;;;;;;;;23.60;62.90;;;;;;5024410;28;87975;-47
2022/06/28 00:32:02;;;;;;;;;;;23.60;62.90;;;;;;5024970;28;88334;-46
2022/06/28 00:34:27;;;;;;;;;;;23.60;62.90;;;;;;5024397;28;87998;-47
2022/06/28 00:36:53;;;;;;;;;;;23.60;62.90;;;;;;5024829;28;87125;-46
2022/06/28 00:39:18;;;;;;;;;;;23.60;62.90;;;;;;5025162;28;87458;-47
2022/06/28 00:41:44;;;;;;;;;;;23.60;63.00;;;;;;5024318;28;88188;-46
2022/06/28 00:44:13;;;;;;;;;;;23.60;63.00;;;;;;5024860;28;87169;-45
2022/06/28 00:46:39;;;;;;;;;;;23.50;62.90;;;;;;5027957;28;87480;-46
2022/06/28 00:49:05;;;;;;;;;;;23.50;63.00;;;;;;5024780;28;87072;-47
2022/06/28 00:51:31;;;;;;;;;;;23.50;63.10;;;;;;5024303;28;87418;-46
2022/06/28 00:53:57;;;;;;;;;;;23.50;63.10;;;;;;5023340;28;89204;-45
2022/06/28 00:56:23;;;;;;;;;;;23.40;63.10;;;;;;5024579;28;86994;-47
2022/06/28 00:58:48;;;;;;;;;;;23.40;63.10;;;;;;5024290;28;88644;-46
2022/06/28 01:01:14;;;;;;;;;;;23.40;63.20;;;;;;5023687;28;89264;-45
2022/06/28 01:03:39;;;;;;;;;;;23.40;63.10;;;;;;5024409;28;87121;-46
2022/06/28 01:06:05;;;;;;;;;;;23.40;63.10;;;;;;5026704;28;89383;-46
2022/06/28 01:08:30;;;;;;;;;;;23.30;63.10;;;;;;5024471;28;88538;-46
2022/06/28 01:10:56;;;;;;;;;;;23.30;63.10;;;;;;5024657;28;87637;-45
2022/06/28 01:13:22;;;;;;;;;;;23.30;63.10;;;;;;5023860;28;88095;-46
2022/06/28 01:15:47;;;;;;;;;;;23.30;63.10;;;;;;5024146;28;86914;-46
2022/06/28 01:18:13;;;;;;;;;;;23.30;63.20;;;;;;5023494;28;87914;-45
2022/06/28 01:20:42;;;;;;;;;;;23.20;63.10;;;;;;5023696;28;87366;-45
2022/06/28 01:23:08;;;;;;;;;;;23.30;63.10;;;;;;5024182;28;87114;-46
2022/06/28 01:25:33;;;;;;;;;;;23.20;63.10;;;;;;5023732;28;87021;-46
2022/06/28 01:27:59;;;;;;;;;;;23.20;63.20;;;;;;5026560;28;88050;-46
2022/06/28 01:30:25;;;;;;;;;;;23.20;63.30;;;;;;5023946;28;86945;-46
2022/06/28 01:32:51;;;;;;;;;;;23.10;63.10;;;;;;5023675;28;88216;-46
2022/06/28 01:35:17;;;;;;;;;;;23.20;63.10;;;;;;5024304;28;87466;-46
2022/06/28 01:37:43;;;;;;;;;;;23.20;63.20;;;;;;5024070;28;86942;-46
2022/06/28 01:40:08;;;;;;;;;;;23.10;63.20;;;;;;5023437;28;87971;-46
2022/06/28 01:42:34;;;;;;;;;;;23.10;63.20;;;;;;5023256;28;88008;-46
2022/06/28 01:44:59;;;;;;;;;;;23.10;63.20;;;;;;5023498;28;88022;-46
2022/06/28 01:47:27;;;;;;;;;;;23.10;63.20;;;;;;5023429;28;88000;-46
2022/06/28 01:49:53;;;;;;;;;;;23.10;63.20;;;;;;5026365;28;86969;-45
2022/06/28 01:52:18;;;;;;;;;;;23.10;63.30;;;;;;5023434;28;87855;-46
2022/06/28 01:54:44;;;;;;;;;;;23.00;63.30;;;;;;5023620;28;87432;-47
2022/06/28 01:57:09;;;;;;;;;;;23.00;63.40;;;;;;5023439;28;87914;-46
2022/06/28 01:59:38;;;;;;;;;;;23.00;63.30;;;;;;5023385;28;87454;-45
2022/06/28 02:02:04;;;;;;;;;;;23.00;63.30;;;;;;5023443;28;87343;-47
2022/06/28 02:04:30;;;;;;;;;;;22.90;63.30;;;;;;5022881;28;87411;-46
2022/06/28 02:06:56;;;;;;;;;;;22.90;63.30;;;;;;5020941;28;90295;-46
2022/06/28 02:09:22;;;;;;;;;;;22.90;63.30;;;;;;5023307;28;86978;-47
2022/06/28 02:11:47;;;;;;;;;;;22.90;63.30;;;;;;5026056;28;87370;-46
2022/06/28 02:14:13;;;;;;;;;;;22.90;63.30;;;;;;5023548;28;87081;-46
2022/06/28 02:16:39;;;;;;;;;;;22.90;63.30;;;;;;5023270;28;87405;-45
2022/06/28 02:19:04;;;;;;;;;;;22.90;63.30;;;;;;5022702;28;87882;-48
2022/06/28 02:21:36;;;;;;;;;;;22.80;63.40;;;;;;5023170;28;87002;-48
2022/06/28 02:24:03;;;;;;;;;;;22.80;63.30;;;;;;5023497;28;87809;-46
2022/06/28 02:26:28;;;;;;;;;;;22.80;63.30;;;;;;5022448;28;89365;-46
2022/06/28 02:28:54;;;;;;;;;;;22.80;63.40;;;;;;5023014;28;87149;-46
2022/06/28 02:31:19;;;;;;;;;;;22.70;63.40;;;;;;5022514;28;87814;-47
2022/06/28 02:33:45;;;;;;;;;;;22.70;63.40;;;;;;5025256;28;89303;-46
2022/06/28 02:41:35;;;;;;;;;;;22.70;63.50;;;;;;5022042;28;86906;-45
2022/06/28 02:44:00;;;;;;;;;;;22.70;63.40;;;;;;5022576;28;89175;-46
2022/06/28 02:46:26;;;;;;;;;;;22.70;63.40;;;;;;5022337;28;88042;-46
2022/06/28 02:48:51;;;;;;;;;;;22.70;63.40;;;;;;5023285;28;86365;-48
2022/06/28 02:51:17;;;;;;;;;;;22.60;63.40;;;;;;5022912;28;88137;-46
2022/06/28 02:53:42;;;;;;;;;;;22.60;63.50;;;;;;5022158;28;89093;-46
2022/06/28 02:56:08;;;;;;;;;;;22.60;63.50;;;;;;5024864;28;88039;-47
2022/06/28 02:58:33;;;;;;;;;;;22.60;63.60;;;;;;5022350;28;88064;-46
2022/06/28 03:00:59;;;;;;;;;;;22.50;63.60;;;;;;5022231;28;87199;-46
2022/06/28 03:03:24;;;;;;;;;;;22.50;63.50;;;;;;5022441;28;87486;-48
2022/06/28 03:05:50;;;;;;;;;;;22.50;63.50;;;;;;5021978;28;89228;-46
2022/06/28 03:08:17;;;;;;;;;;;22.50;63.60;;;;;;5022234;28;87085;-46
2022/06/28 03:10:42;;;;;;;;;;;22.50;63.50;;;;;;5022495;28;87482;-45
2022/06/28 03:13:08;;;;;;;;;;;22.40;63.50;;;;;;5022705;28;87454;-45
2022/06/28 03:15:34;;;;;;;;;;;22.50;63.60;;;;;;5025196;28;87176;-46
2022/06/28 03:17:59;;;;;;;;;;;22.40;63.50;;;;;;5021952;28;87872;-46
2022/06/28 03:20:25;;;;;;;;;;;22.40;63.50;;;;;;5021754;28;88073;-47
2022/06/28 03:22:50;;;;;;;;;;;22.40;63.50;;;;;;5022490;28;88336;-47
2022/06/28 03:25:16;;;;;;;;;;;22.40;63.70;;;;;;5022159;28;88030;-45
2022/06/28 03:27:41;;;;;;;;;;;22.30;63.60;;;;;;5022186;28;87111;-46
2022/06/28 03:30:07;;;;;;;;;;;22.40;63.60;;;;;;5021925;28;89049;-46
2022/06/28 03:32:33;;;;;;;;;;;22.30;63.60;;;;;;5021549;28;88784;-45
2022/06/28 03:34:58;;;;;;;;;;;22.30;63.70;;;;;;5022232;28;86962;-45
2022/06/28 03:37:24;;;;;;;;;;;22.30;63.50;;;;;;5025155;28;87611;-48
2022/06/28 03:39:49;;;;;;;;;;;22.30;63.60;;;;;;5022154;28;87635;-46
2022/06/28 03:42:15;;;;;;;;;;;22.30;63.60;;;;;;5022080;28;87510;-45
2022/06/28 03:44:40;;;;;;;;;;;22.30;63.70;;;;;;5019412;28;90875;-46
2022/06/28 03:47:06;;;;;;;;;;;22.30;63.60;;;;;;5021957;28;87133;-46
2022/06/28 03:49:31;;;;;;;;;;;22.20;63.60;;;;;;5024921;28;87296;-46
2022/06/28 03:51:57;;;;;;;;;;;22.20;63.70;;;;;;5025183;28;87814;-46
2022/06/28 03:54:23;;;;;;;;;;;22.20;63.60;;;;;;5023812;28;86976;-46
2022/06/28 03:56:49;;;;;;;;;;;22.20;63.70;;;;;;5025589;28;87312;-46
2022/06/28 03:59:14;;;;;;;;;;;22.20;63.70;;;;;;5028043;28;88152;-47
2022/06/28 04:01:40;;;;;;;;;;;22.20;63.70;;;;;;5025300;28;87553;-46
2022/06/28 04:04:05;;;;;;;;;;;22.20;63.60;;;;;;5024636;28;87726;-46
2022/06/28 04:06:31;;;;;;;;;;;22.10;63.60;;;;;;5025337;28;87128;-45
2022/06/28 04:08:56;;;;;;;;;;;22.10;63.70;;;;;;5024762;28;87984;-45
2022/06/28 04:11:22;;;;;;;;;;;22.10;63.70;;;;;;5024922;28;87242;-45
2022/06/28 04:13:48;;;;;;;;;;;22.10;63.70;;;;;;5025546;28;87206;-48
2022/06/28 04:16:14;;;;;;;;;;;22.10;63.70;;;;;;5025029;28;87525;-47
2022/06/28 04:18:40;;;;;;;;;;;22.10;63.80;;;;;;5024800;28;87991;-45
2022/06/28 04:21:05;;;;;;;;;;;22.10;63.70;;;;;;5028054;28;86987;-46
2022/06/28 04:23:31;;;;;;;;;;;22.00;63.80;;;;;;5024830;28;88012;-45
2022/06/28 04:25:57;;;;;;;;;;;22.00;63.70;;;;;;5025583;28;86236;-45
2022/06/28 04:28:22;;;;;;;;;;;22.00;63.70;;;;;;5024817;28;86977;-45
2022/06/28 04:30:48;;;;;;;;;;;22.00;63.70;;;;;;5024564;28;88086;-46
2022/06/28 04:33:13;;;;;;;;;;;22.00;63.80;;;;;;5024578;28;89155;-46
2022/06/28 04:35:39;;;;;;;;;;;22.00;63.80;;;;;;5024840;28;88417;-46
2022/06/28 04:38:04;;;;;;;;;;;22.00;63.90;;;;;;5024222;28;87380;-45
2022/06/28 04:40:30;;;;;;;;;;;22.00;63.80;;;;;;5024767;28;87132;-47
2022/06/28 04:42:55;;;;;;;;;;;22.00;63.80;;;;;;5027321;28;87412;-46
2022/06/28 04:45:21;;;;;;;;;;;22.00;63.90;;;;;;5024836;28;87164;-46
2022/06/28 04:47:47;;;;;;;;;;;22.00;63.90;;;;;;5024587;28;87123;-45
2022/06/28 04:50:13;;;;;;;;;;;22.00;64.00;;;;;;5024667;28;88754;-44
2022/06/28 04:52:39;;;;;;;;;;;21.90;63.90;;;;;;5024708;28;87116;-45
2022/06/28 04:55:04;;;;;;;;;;;21.90;64.00;;;;;;5024508;28;86883;-46
2022/06/28 04:57:30;;;;;;;;;;;21.90;63.90;;;;;;5023339;28;88955;-46
2022/06/28 04:59:56;;;;;;;;;;;21.90;63.90;;;;;;5023442;28;87143;-48
2022/06/28 05:02:21;;;;;;;;;;;21.90;64.00;;;;;;5024163;28;88915;-46
2022/06/28 05:04:47;;;;;;;;;;;21.90;64.00;;;;;;5026395;28;88095;-46
2022/06/28 05:07:13;;;;;;;;;;;21.90;64.00;;;;;;5024535;28;87628;-46
2022/06/28 05:09:38;;;;;;;;;;;21.90;64.10;;;;;;5024015;28;87663;-45
2022/06/28 05:12:04;;;;;;;;;;;21.90;64.40;;;;;;5024326;28;87099;-46
2022/06/28 05:14:29;;;;;;;;;;;21.80;64.40;;;;;;5024623;28;87359;-48
2022/06/28 05:16:55;;;;;;;;;;;21.80;64.40;;;;;;5023581;28;88417;-45
2022/06/28 05:19:20;;;;;;;;;;;21.80;64.50;;;;;;5024070;28;87061;-46
2022/06/28 05:21:46;;;;;;;;;;;21.80;64.60;;;;;;5023733;28;87974;-44
2022/06/28 05:24:11;;;;;;;;;;;21.80;64.60;;;;;;5026814;28;88169;-45
2022/06/28 05:26:37;;;;;;;;;;;21.80;64.60;;;;;;5024073;28;87310;-45
2022/06/28 05:29:02;;;;;;;;;;;21.80;64.60;;;;;;5023716;28;88043;-47
2022/06/28 05:31:28;;;;;;;;;;;21.80;64.60;;;;;;5023908;28;87030;-48
2022/06/28 05:33:55;;;;;;;;;;;21.80;64.50;;;;;;5023980;28;87443;-45
2022/06/28 05:36:20;;;;;;;;;;;21.80;64.60;;;;;;5023638;28;87263;-45
2022/06/28 05:38:46;;;;;;;;;;;21.80;64.70;;;;;;5024290;28;86374;-46
2022/06/28 05:41:11;;;;;;;;;;;21.80;64.80;;;;;;5024041;28;87040;-45
2022/06/28 05:43:37;;;;;;;;;;;21.90;64.70;;;;;;5023414;28;88020;-46
2022/06/28 05:46:02;;;;;;;;;;;21.90;64.80;;;;;;5026037;28;87960;-45
2022/06/28 05:48:28;;;;;;;;;;;21.90;64.80;;;;;;5023229;28;88358;-45
2022/06/28 05:50:54;;;;;;;;;;;21.90;64.70;;;;;;5023567;28;87175;-46
2022/06/28 05:53:19;;;;;;;;;;;21.90;64.70;;;;;;5023500;28;88839;-45
2022/06/28 05:55:45;;;;;;;;;;;21.90;64.60;;;;;;5023093;28;89464;-46
2022/06/28 05:58:10;;;;;;;;;;;21.90;64.60;;;;;;5023557;28;87099;-45
2022/06/28 06:00:37;;;;;;;;;;;22.00;64.70;;;;;;5023405;28;87774;-46
2022/06/28 06:03:03;;;;;;;;;;;22.00;64.70;;;;;;5023131;28;88807;-45
2022/06/28 06:05:29;;;;;;;;;;;22.00;64.60;;;;;;5023355;28;87226;-47
2022/06/28 06:07:54;;;;;;;;;;;21.90;64.70;;;;;;5026296;28;87189;-48
2022/06/28 06:10:20;;;;;;;;;;;22.00;64.60;;;;;;5022954;28;88034;-46
2022/06/28 06:12:46;;;;;;;;;;;22.00;64.60;;;;;;5022186;28;88373;-45
2022/06/28 06:15:11;;;;;;;;;;;22.00;64.70;;;;;;5022924;28;88564;-45
2022/06/28 06:17:37;;;;;;;;;;;22.00;64.70;;;;;;5023003;28;86967;-45
2022/06/28 06:20:03;;;;;;;;;;;22.00;64.60;;;;;;5023152;28;87451;-46
2022/06/28 06:22:28;;;;;;;;;;;22.00;64.70;;;;;;5022906;28;87082;-45
2022/06/28 06:24:54;;;;;;;;;;;22.00;64.70;;;;;;5023038;28;87051;-46
2022/06/28 06:27:20;;;;;;;;;;;22.00;64.80;;;;;;5023602;28;87495;-45
2022/06/28 06:29:45;;;;;;;;;;;22.00;65.30;;;;;;5025678;28;87723;-46
2022/06/28 06:32:11;;;;;;;;;;;22.10;64.80;;;;;;5022898;28;87482;-45
2022/06/28 06:34:36;;;;;;;;;;;22.10;65.00;;;;;;5022022;28;88985;-46
2022/06/28 06:37:02;;;;;;;;;;;22.00;65.20;;;;;;5022923;28;87082;-45
2022/06/28 06:39:27;;;;;;;;;;;22.00;65.10;;;;;;5023207;28;87351;-45
2022/06/28 06:41:53;;;;;;;;;;;22.00;65.00;;;;;;5022549;28;88069;-46
2022/06/28 06:44:18;;;;;;;;;;;22.00;65.10;;;;;;5021242;28;87136;-46
2022/06/28 06:46:44;;;;;;;;;;;22.00;65.00;;;;;;5022451;28;87836;-45
2022/06/28 06:49:09;;;;;;;;;;;22.00;65.10;;;;;;5022405;28;87989;-45
2022/06/28 06:51:35;;;;;;;;;;;22.10;65.00;;;;;;5026028;28;86284;-45
2022/06/28 06:54:01;;;;;;;;;;;22.00;65.00;;;;;;5022583;28;87164;-45
2022/06/28 06:56:27;;;;;;;;;;;22.00;65.10;;;;;;5022696;28;87201;-45
2022/06/28 06:58:53;;;;;;;;;;;22.00;65.10;;;;;;5022178;28;88056;-45
2022/06/28 07:01:19;;;;;;;;;;;22.00;65.10;;;;;;5021700;28;88376;-45
2022/06/28 07:03:45;;;;;;;;;;;22.00;65.10;;;;;;5022116;28;87245;-46
2022/06/28 07:06:11;;;;;;;;;;;22.10;65.20;;;;;;5022608;28;87341;-45
2022/06/28 07:08:37;;;;;;;;;;;22.00;65.20;;;;;;5022136;28;88065;-47
2022/06/28 07:11:02;;;;;;;;;;;22.00;65.20;;;;;;5022538;28;87120;-45
2022/06/28 07:13:28;;;;;;;;;;;22.00;65.20;;;;;;5024934;28;87476;-45
2022/06/28 07:15:54;;;;;;;;;;;22.10;65.20;;;;;;5022682;28;86385;-45
2022/06/28 07:18:20;;;;;;;;;;;22.10;65.20;;;;;;5021923;28;88310;-45
2022/06/28 07:20:46;;;;;;;;;;;22.10;65.50;;;;;;5021859;28;89411;-45
2022/06/28 07:23:11;;;;;;;;;;;22.10;65.30;;;;;;5022540;28;87962;-46
2022/06/28 07:25:37;;;;;;;;;;;22.00;65.10;;;;;;5025759;28;89594;-45
2022/06/28 07:28:02;;;;;;;;;;;22.10;66.00;;;;;;5025655;28;88169;-45
2022/06/28 07:30:28;;;;;;;;;;;22.10;65.60;;;;;;5025922;28;87536;-45
2022/06/28 07:32:53;;;;;;;;;;;22.10;65.20;;;;;;5028365;28;87382;-46
2022/06/28 07:35:24;;;;;;;;;;;22.10;65.10;;;;;;5025787;28;87024;-45
2022/06/28 07:37:50;;;;;;;;;;;22.10;65.40;;;;;;5025515;28;88921;-45
2022/06/28 07:40:15;;;;;;;;;;;22.10;65.70;;;;;;5026005;28;87244;-45
2022/06/28 07:42:41;;;;;;;;;;;22.10;65.60;;;;;;5025656;28;87153;-45
2022/06/28 07:45:06;;;;;;;;;;;22.10;65.90;;;;;;5025587;28;87469;-45
2022/06/28 07:47:32;;;;;;;;;;;22.10;65.80;;;;;;5024554;28;88977;-43
2022/06/28 07:52:42;;;;;;;;;;;22.10;65.30;;;;;;5025500;28;87068;-46
2022/06/28 07:55:08;;;;;;;;;;;22.10;65.90;;;;;;5028201;28;87190;-46
2022/06/28 07:57:33;;;;;;;;;;;22.20;65.90;;;;;;5025312;28;88731;-44
2022/06/28 07:59:59;;;;;;;;;;;22.10;66.10;;;;;;5024831;28;87347;-45
2022/06/28 08:02:24;;;;;;;;;;;22.10;66.00;;;;;;5025000;28;87248;-45
2022/06/28 08:04:50;;;;;;;;;;;22.20;65.80;;;;;;5025517;28;87473;-46
2022/06/28 08:07:15;;;;;;;;;;;22.20;65.80;;;;;;5024951;28;87275;-45
2022/06/28 08:09:41;;;;;;;;;;;22.20;66.00;;;;;;5025183;28;87152;-46
2022/06/28 08:12:07;;;;;;;;;;;22.20;66.10;;;;;;5024590;28;88673;-45
2022/06/28 08:14:32;;;;;;;;;;;22.20;66.00;;;;;;5025193;28;88112;-44
2022/06/28 08:16:58;;;;;;;;;;;22.20;65.50;;;;;;5028137;28;87141;-44
2022/06/28 08:19:23;;;;;;;;;;;22.20;65.90;;;;;;5024828;28;88065;-45
2022/06/28 08:21:49;;;;;;;;;;;22.20;65.60;;;;;;5025163;28;87250;-45
2022/06/28 08:24:15;;;;;;;;;;;22.20;65.70;;;;;;5025009;28;87507;-45
2022/06/28 08:26:42;;;;;;;;;;;22.20;65.50;;;;;;5024243;28;90438;-45
2022/06/28 08:29:12;;;;;;;;;;;22.20;65.80;;;;;;5025176;28;86275;-44
2022/06/28 08:31:37;;;;;;;;;;;22.20;66.00;;;;;;5024647;28;87518;-45
2022/06/28 08:34:04;;;;;;;;;;;22.20;65.90;;;;;;5024088;28;87949;-46
2022/06/28 08:36:29;;;;;;;;;;;22.30;65.90;;;;;;5023637;28;88052;-45
2022/06/28 08:38:56;;;;;;;;;;;22.30;65.70;;;;;;5027354;28;88737;-44
2022/06/28 08:41:23;;;;;;;;;;;22.30;65.80;;;;;;5024647;28;87081;-45
2022/06/28 08:43:49;;;;;;;;;;;22.30;65.90;;;;;;5024362;28;87455;-45
2022/06/28 08:46:14;;;;;;;;;;;22.30;65.70;;;;;;5024494;28;88033;-44
2022/06/28 08:48:41;;;;;;;;;;;22.30;65.90;;;;;;5024781;28;87214;-49
2022/06/28 08:51:08;;;;;;;;;;;22.40;65.80;;;;;;5024793;28;87349;-43
2022/06/28 08:53:35;;;;;;;;;;;22.30;65.70;;;;;;5024519;28;88665;-45
2022/06/28 08:56:01;;;;;;;;;;;22.40;65.80;;;;;;5024678;28;87000;-44
2022/06/28 08:58:27;;;;;;;;;;;22.40;65.80;;;;;;5024310;28;87705;-45
2022/06/28 09:00:53;;;;;;;;;;;22.40;65.70;;;;;;5026030;28;89163;-45
2022/06/28 09:03:19;;;;;;;;;;;22.40;65.60;;;;;;5023938;28;88882;-44
2022/06/28 09:05:44;;;;;;;;;;;22.40;65.50;;;;;;5024195;28;87826;-44
2022/06/28 09:08:10;;;;;;;;;;;22.50;65.60;;;;;;5024527;28;87165;-44
2022/06/28 09:10:36;;;;;;;;;;;22.50;65.50;;;;;;5024578;28;87429;-44
2022/06/28 09:13:08;;;;;;;;;;;22.50;65.50;;;;;;5023717;28;87245;-45
2022/06/28 09:15:45;;;;;;;;;;;22.50;65.40;;;;;;5024151;28;87182;-46
2022/06/28 09:18:10;;;;;;;;;;;22.50;65.60;;;;;;5024469;28;87427;-44
2022/06/28 09:20:38;;;;;;;;;;;22.50;65.40;;;;;;5023867;28;87282;-45
2022/06/28 09:23:04;;;;;;;;;;;22.60;65.60;;;;;;5026917;28;86956;-45
2022/06/28 09:25:30;;;;;;;;;;;22.60;65.50;;;;;;5022908;28;89841;-45
2022/06/28 09:27:57;;;;;;;;;;;22.60;65.50;;;;;;5023838;28;86975;-47
2022/06/28 09:30:24;;;;;;;;;;;22.60;65.50;;;;;;5023780;28;88684;-44
2022/06/28 09:32:49;;;;;;;;;;;22.60;65.50;;;;;;5023523;28;87267;-44
2022/06/28 09:35:15;;;;;;;;;;;22.60;65.30;;;;;;5023767;28;87150;-45
2022/06/28 09:37:48;;;;;;;;;;;22.60;65.30;;;;;;5024082;28;87407;-44
2022/06/28 09:40:29;;;;;;;;;;;22.70;65.30;;;;;;5023190;28;88532;-45
2022/06/28 09:43:06;;;;;;;;;;;22.70;65.30;;;;;;5027146;28;86549;-45
2022/06/28 09:45:31;;;;;;;;;;;22.70;65.40;;;;;;5023129;28;89457;-45
2022/06/28 09:47:57;;;;;;;;;;;22.70;65.40;;;;;;5023583;28;87414;-47
2022/06/28 09:50:23;;;;;;;;;;;22.70;65.30;;;;;;5023145;28;87793;-46
2022/06/28 09:52:49;;;;;;;;;;;22.70;65.30;;;;;;5023329;28;88391;-45
2022/06/28 09:55:15;;;;;;;;;;;22.80;65.30;;;;;;5023586;28;87095;-45
2022/06/28 09:57:45;;;;;;;;;;;22.80;65.20;;;;;;5023486;28;88866;-45
2022/06/28 10:00:12;;;;;;;;;;;22.80;65.30;;;;;;5022994;28;88568;-44
2022/06/28 10:02:39;;;;;;;;;;;22.80;65.20;;;;;;5023431;28;87174;-45
2022/06/28 10:05:04;;;;;;;;;;;22.80;65.30;;;;;;5025722;28;87256;-44
2022/06/28 10:07:30;;;;;;;;;;;22.80;65.30;;;;;;5023682;28;86500;-45
2022/06/28 10:09:56;;;;;;;;;;;22.90;65.30;;;;;;5023407;28;86995;-44
2022/06/28 10:15:08;;;;;;;;;;;22.90;65.20;;;;;;5021573;28;87933;-45
2022/06/28 10:17:46;;;;;;;;;;;22.90;65.10;;;;;;5023131;28;88371;-45
2022/06/28 10:20:15;;;;;;;;;;;22.90;65.20;;;;;;5022601;28;89594;-45
2022/06/28 10:22:41;;;;;;;;;;;22.90;65.20;;;;;;5023191;28;87007;-45
2022/06/28 10:25:16;;;;;;;;;;;23.00;65.20;;;;;;5023133;28;87389;-46
2022/06/28 10:27:47;;;;;;;;;;;23.00;65.30;;;;;;5024360;28;89347;-44
2022/06/28 10:30:19;;;;;;;;;;;23.00;65.20;;;;;;5023067;28;87559;-44
2022/06/28 10:32:46;;;;;;;;;;;23.00;65.20;;;;;;5022943;28;88844;-44
2022/06/28 10:35:35;;;;;;;;;;;23.00;65.20;;;;;;5022997;28;87139;-45
2022/06/28 10:38:09;;;;;;;;;;;23.10;65.20;;;;;;5022621;28;87765;-45
2022/06/28 10:40:47;;;;;;;;;;;23.10;65.10;;;;;;5021692;28;90484;-45
2022/06/28 10:43:14;;;;;;;;;;;23.10;65.00;;;;;;5023104;28;87116;-44
2022/06/28 10:45:58;;;;;;;;;;;23.20;65.10;;;;;;5022732;28;86993;-45
2022/06/28 10:48:24;;;;;;;;;;;23.20;65.10;;;;;;5022489;28;88140;-44
2022/06/28 10:50:58;;;;;;;;;;;23.20;65.20;;;;;;5025793;28;86970;-46
2022/06/28 10:53:25;;;;;;;;;;;23.20;65.10;;;;;;5022281;28;87241;-45
2022/06/28 10:56:09;;;;;;;;;;;23.20;65.00;;;;;;5022679;28;87121;-45
2022/06/28 10:58:49;;;;;;;;;;;23.20;65.10;;;;;;5022342;28;87570;-44
2022/06/28 11:01:14;;;;;;;;;;;23.20;64.90;;;;;;5022137;28;88202;-45
2022/06/28 11:03:59;;;;;;;;;;;23.30;65.00;;;;;;5022539;28;87612;-45
2022/06/28 11:06:37;;;;;;;;;;;23.30;65.00;;;;;;5022125;28;87956;-45
2022/06/28 11:09:04;;;;;;;;;;;23.40;65.00;;;;;;5022268;28;88122;-46
2022/06/28 11:11:32;;;;;;;;;;;23.40;64.90;;;;;;5022483;28;87101;-45
2022/06/28 11:14:16;;;;;;;;;;;23.40;64.90;;;;;;5024948;28;87454;-45
2022/06/28 11:16:46;;;;;;;;;;;23.40;64.90;;;;;;5022572;28;87205;-45
2022/06/28 11:19:12;;;;;;;;;;;23.40;65.00;;;;;;5022241;28;87871;-45
2022/06/28 11:21:37;;;;;;;;;;;23.40;64.90;;;;;;5022122;28;87985;-45
2022/06/28 11:24:04;;;;;;;;;;;23.50;64.90;;;;;;5022765;28;86346;-45
2022/06/28 11:29:18;;;;;;;;;;;23.50;64.90;;;;;;5021925;28;87152;-47
2022/06/28 11:31:43;;;;;;;;;;;23.50;64.80;;;;;;5021615;28;87967;-45
2022/06/28 11:34:09;;;;;;;;;;;23.50;64.80;;;;;;5024588;28;89089;-45
2022/06/28 11:36:34;;;;;;;;;;;23.60;64.80;;;;;;5022193;28;87072;-44
2022/06/28 11:39:01;;;;;;;;;;;23.60;64.80;;;;;;5022070;28;87458;-45
2022/06/28 11:41:27;;;;;;;;;;;23.60;64.80;;;;;;5021596;28;88101;-45
2022/06/28 11:43:57;;;;;;;;;;;23.60;64.80;;;;;;5021768;28;87103;-46
2022/06/28 11:46:24;;;;;;;;;;;23.60;64.70;;;;;;5022132;28;87524;-44
2022/06/28 11:48:51;;;;;;;;;;;23.60;64.60;;;;;;5022192;28;87374;-44
2022/06/28 11:51:24;;;;;;;;;;;23.60;64.60;;;;;;5021905;28;87009;-45
2022/06/28 11:53:49;;;;;;;;;;;23.70;64.70;;;;;;5022093;28;87313;-44
2022/06/28 11:56:15;;;;;;;;;;;23.70;64.70;;;;;;5023686;28;89508;-45
2022/06/28 11:58:41;;;;;;;;;;;23.70;64.70;;;;;;5022040;28;88689;-44
2022/06/28 12:01:11;;;;;;;;;;;23.70;64.60;;;;;;5021266;28;88167;-44
2022/06/28 12:03:43;;;;;;;;;;;23.70;64.60;;;;;;5021230;28;87197;-44
2022/06/28 12:06:29;;;;;;;;;;;23.80;64.60;;;;;;5021856;28;87600;-45
2022/06/28 12:09:14;;;;;;;;;;;23.80;64.60;;;;;;5021694;28;89497;-44
2022/06/28 12:11:42;;;;;;;;;;;23.80;64.40;;;;;;5025009;28;86971;-42
2022/06/28 12:14:15;;;;;;;;;;;23.80;64.40;;;;;;5025566;28;88874;-46
2022/06/28 12:16:42;;;;;;;;;;;23.90;64.50;;;;;;5024792;28;89367;-46
2022/06/28 12:19:08;;;;;;;;;;;23.90;64.30;;;;;;5027826;28;86902;-44
2022/06/28 12:21:34;;;;;;;;;;;23.90;64.20;;;;;;5024003;28;88906;-46
2022/06/28 12:24:01;;;;;;;;;;;24.00;64.30;;;;;;5024851;28;87174;-45
2022/06/28 12:26:45;;;;;;;;;;;23.90;64.20;;;;;;5025083;28;87644;-45
2022/06/28 12:29:14;;;;;;;;;;;24.00;64.20;;;;;;5024416;28;89416;-45
2022/06/28 12:31:42;;;;;;;;;;;24.00;64.10;;;;;;5024744;28;87175;-45
2022/06/28 12:34:08;;;;;;;;;;;24.00;64.10;;;;;;5024628;28;88800;-45
2022/06/28 12:36:34;;;;;;;;;;;24.10;64.10;;;;;;5024478;28;88111;-44
2022/06/28 12:39:00;;;;;;;;;;;24.10;64.10;;;;;;5025034;28;86360;-45
2022/06/28 12:41:26;;;;;;;;;;;24.10;64.10;;;;;;5027237;28;88116;-45
2022/06/28 12:43:51;;;;;;;;;;;24.20;64.10;;;;;;5009126;28;88764;-45
2022/06/28 12:46:16;;;;;;;;;;;24.10;62.50;;;;;;5003694;28;87952;-45
2022/06/28 12:48:42;;;;;;;;;;;24.10;62.90;;;;;;5002553;28;89484;-42
2022/06/28 12:51:07;;;;;;;;;;;24.10;62.00;;;;;;5003790;28;87120;-51
2022/06/28 12:53:33;;;;;;;;;;;24.20;62.50;;;;;;5003592;28;87442;-46
2022/06/28 12:55:58;;;;;;;;;;;24.20;62.00;;;;;;5002459;28;88206;-51
2022/06/28 12:58:24;;;;;;;;;;;24.20;62.00;;;;;;5003197;28;87377;-45
2022/06/28 13:00:50;;;;;;;;;;;24.20;61.70;;;;;;5003375;28;87453;-52
2022/06/28 13:03:15;;;;;;;;;;;24.30;61.60;;;;;;5006553;28;87648;-46
2022/06/28 13:05:40;;;;;;;;;;;24.30;60.30;;;;;;5004231;28;87034;-49
2022/06/28 13:08:06;;;;;;;;;;;24.40;60.70;;;;;;5003605;28;87502;-46
2022/06/28 13:10:32;;;;;;;;;;;24.40;61.00;;;;;;5003526;28;88096;-49
2022/06/28 13:12:57;;;;;;;;;;;24.50;60.20;;;;;;5003968;28;88398;-46
2022/06/28 13:15:23;;;;;;;;;;;24.50;61.20;;;;;;5002639;28;89697;-44
2022/06/28 13:17:49;;;;;;;;;;;24.50;59.90;;;;;;5003680;28;87163;-46
2022/06/28 13:20:14;;;;;;;;;;;24.50;59.70;;;;;;5002418;28;87576;-52
2022/06/28 13:22:40;;;;;;;;;;;24.60;57.80;;;;;;5002947;28;89170;-44
2022/06/28 13:25:07;;;;;;;;;;;24.50;57.00;;;;;;5007086;28;87106;-44
2022/06/28 13:27:32;;;;;;;;;;;24.60;58.70;;;;;;5004058;28;89419;-43
2022/06/28 13:29:58;;;;;;;;;;;24.70;58.30;;;;;;5004181;28;86711;-44
2022/06/28 13:32:23;;;;;;;;;;;24.70;57.10;;;;;;5003533;28;88736;-51
2022/06/28 13:34:49;;;;;;;;;;;24.70;57.00;;;;;;5020831;28;89036;-46
2022/06/28 13:37:15;;;;;;;;;;;24.80;57.80;;;;;;5023835;28;87092;-41
2022/06/28 13:39:41;;;;;;;;;;;24.80;57.50;;;;;;5023599;28;88651;-49
2022/06/28 13:42:07;;;;;;;;;;;24.80;57.90;;;;;;5023673;28;87733;-48
2022/06/28 13:44:33;;;;;;;;;;;24.90;55.90;;;;;;5026829;28;86902;-45
2022/06/28 13:46:59;;;;;;;;;;;24.90;55.80;;;;;;5023527;28;87845;-46
2022/06/28 13:49:25;;;;;;;;;;;25.00;57.00;;;;;;5022091;28;87209;-45
2022/06/28 13:51:50;;;;;;;;;;;25.10;57.40;;;;;;5023828;28;88967;-47
2022/06/28 13:54:15;;;;;;;;;;;25.10;57.20;;;;;;5023441;28;87248;-45
2022/06/28 13:56:41;;;;;;;;;;;25.20;57.60;;;;;;5023557;28;87276;-43
2022/06/28 13:59:06;;;;;;;;;;;25.20;57.90;;;;;;5022984;28;87951;-46
2022/06/28 14:01:32;;;;;;;;;;;25.20;57.60;;;;;;5022804;28;88078;-55
2022/06/28 14:03:58;;;;;;;;;;;25.30;58.00;;;;;;5023268;28;87072;-51
2022/06/28 14:06:23;;;;;;;;;;;25.30;57.80;;;;;;5026082;28;87534;-47
2022/06/28 14:08:49;;;;;;;;;;;25.40;56.80;;;;;;5023131;28;87116;-51
2022/06/28 14:11:14;;;;;;;;;;;25.40;56.00;;;;;;5023535;28;87185;-44
2022/06/28 14:13:41;;;;;;;;;;;25.40;56.50;;;;;;5023119;28;88175;-43
2022/06/28 14:16:07;;;;;;;;;;;25.30;56.60;;;;;;5023499;28;86357;-59
2022/06/28 14:18:32;;;;;;;;;;;25.40;56.00;;;;;;5023340;28;87062;-45
2022/06/28 14:20:58;;;;;;;;;;;25.30;56.70;;;;;;5022911;28;87944;-43
2022/06/28 14:23:24;;;;;;;;;;;25.30;56.60;;;;;;5022310;28;88134;-42
2022/06/28 14:25:49;;;;;;;;;;;25.30;56.10;;;;;;5021574;28;89836;-44
2022/06/28 14:28:16;;;;;;;;;;;25.40;55.70;;;;;;5025523;28;88072;-42